createdAt,value
2023-04-23T00:00:11.723Z,96.01
2023-04-23T00:01:11.749Z,96.22
2023-04-23T00:02:11.693Z,96.31
2023-04-23T00:03:11.829Z,96.42
2023-04-23T00:04:11.792Z,96.31
2023-04-23T00:05:11.685Z,96.42
2023-04-23T00:06:11.659Z,96.52
2023-04-23T00:07:11.686Z,96.62
2023-04-23T00:08:11.604Z,96.62
2023-04-23T00:09:11.629Z,96.62
2023-04-23T00:10:11.619Z,96.62
2023-04-23T00:11:11.592Z,96.62
2023-04-23T00:12:11.547Z,96.72
2023-04-23T00:13:11.604Z,96.72
2023-04-23T00:14:11.543Z,96.92
2023-04-23T00:15:11.530Z,96.92
2023-04-23T00:16:11.526Z,97.03
2023-04-23T00:17:11.546Z,97.03
2023-04-23T00:18:11.472Z,97.13
2023-04-23T00:19:11.478Z,97.13
2023-04-23T00:20:11.450Z,97.13
2023-04-23T00:21:11.466Z,97.13
2023-04-23T00:22:11.439Z,97.23
2023-04-23T00:23:11.425Z,97.33
2023-04-23T00:24:11.406Z,97.33
2023-04-23T00:25:11.443Z,97.33
2023-04-23T00:26:11.381Z,97.33
2023-04-23T00:27:11.401Z,97.44
2023-04-23T00:28:11.355Z,97.44
2023-04-23T00:29:11.368Z,97.53
2023-04-23T00:30:11.318Z,97.64
2023-04-23T00:31:11.340Z,97.74
2023-04-23T00:32:11.343Z,97.64
2023-04-23T00:33:11.299Z,97.74
2023-04-23T00:34:11.288Z,97.94
2023-04-23T00:35:11.762Z,98.05
2023-04-23T00:36:11.232Z,97.94
2023-04-23T00:37:11.249Z,97.99
2023-04-23T00:38:11.216Z,98.09
2023-04-23T00:39:11.263Z,98.19
2023-04-23T00:40:11.172Z,98.30
2023-04-23T00:41:11.203Z,98.39
2023-04-23T00:42:11.160Z,98.50
2023-04-23T00:43:11.164Z,98.50
2023-04-23T00:44:11.163Z,98.50
2023-04-23T00:45:11.140Z,98.60
2023-04-23T00:46:11.144Z,98.60
2023-04-23T00:47:11.141Z,98.60
2023-04-23T00:48:11.086Z,98.60
2023-04-23T00:49:11.103Z,98.70
2023-04-23T00:50:11.045Z,98.70
2023-04-23T00:51:11.078Z,98.70
2023-04-23T00:52:11.055Z,98.80
2023-04-23T00:53:11.028Z,98.70
2023-04-23T00:54:11.013Z,98.80
2023-04-23T00:55:11.018Z,98.91
2023-04-23T00:56:11.014Z,99.01
2023-04-23T00:57:10.982Z,99.11
2023-04-23T00:58:10.949Z,99.11
2023-04-23T00:59:10.964Z,99.11
2023-04-23T01:00:10.922Z,99.21
2023-04-23T01:01:11.009Z,99.21
2023-04-23T01:02:11.077Z,99.31
2023-04-23T01:03:11.015Z,99.31
2023-04-23T01:04:10.939Z,99.31
2023-04-23T01:05:10.878Z,99.41
2023-04-23T01:06:10.896Z,99.41
2023-04-23T01:07:10.855Z,99.41
2023-04-23T01:08:10.825Z,99.36
2023-04-23T01:09:10.831Z,99.36
2023-04-23T01:10:10.788Z,99.46
2023-04-23T01:11:10.835Z,99.36
2023-04-23T01:12:10.782Z,99.46
2023-04-23T01:13:10.772Z,99.56
2023-04-23T01:14:10.740Z,99.52
2023-04-23T01:15:10.777Z,99.56
2023-04-23T01:16:10.731Z,99.31
2023-04-23T01:17:10.746Z,99.36
2023-04-23T01:18:10.701Z,99.31
2023-04-23T01:19:10.709Z,99.31
2023-04-23T01:20:10.649Z,99.31
2023-04-23T01:21:10.658Z,99.21
2023-04-23T01:22:10.656Z,99.21
2023-04-23T01:23:10.662Z,99.11
2023-04-23T01:24:10.626Z,98.95
2023-04-23T01:25:10.611Z,98.85
2023-04-23T01:26:10.580Z,98.75
2023-04-23T01:27:10.590Z,98.85
2023-04-23T01:28:10.581Z,98.95
2023-04-23T01:29:10.569Z,98.85
2023-04-23T01:30:10.518Z,98.85
2023-04-23T01:31:10.567Z,98.85
2023-04-23T01:32:10.487Z,98.95
2023-04-23T01:33:10.525Z,98.95
2023-04-23T01:34:10.481Z,98.95
2023-04-23T01:35:10.480Z,98.95
2023-04-23T01:36:10.460Z,99.05
2023-04-23T01:37:10.479Z,98.95
2023-04-23T01:38:10.461Z,98.95
2023-04-23T01:39:10.459Z,99.05
2023-04-23T01:40:10.422Z,99.05
2023-04-23T01:41:10.391Z,99.16
2023-04-23T01:42:10.352Z,99.16
2023-04-23T01:43:10.377Z,99.16
2023-04-23T01:44:10.378Z,99.16
2023-04-23T01:45:10.371Z,99.05
2023-04-23T01:46:10.328Z,99.20
2023-04-23T01:47:10.323Z,99.16
2023-04-23T01:48:10.294Z,99.20
2023-04-23T01:49:10.295Z,99.20
2023-04-23T01:50:10.285Z,99.41
2023-04-23T01:51:10.257Z,99.30
2023-04-23T01:52:10.233Z,99.41
2023-04-23T01:53:10.242Z,99.41
2023-04-23T01:54:10.213Z,99.30
2023-04-23T01:55:10.253Z,99.41
2023-04-23T01:56:10.179Z,99.41
2023-04-23T01:57:10.217Z,99.41
2023-04-23T01:58:10.144Z,99.41
2023-04-23T01:59:10.160Z,99.41
2023-04-23T02:00:10.145Z,99.41
2023-04-23T02:01:10.195Z,99.30
2023-04-23T02:02:10.142Z,99.30
2023-04-23T02:03:10.272Z,99.20
2023-04-23T02:04:10.165Z,99.20
2023-04-23T02:05:10.080Z,99.20
2023-04-23T02:06:10.061Z,99.20
2023-04-23T02:07:10.043Z,99.30
2023-04-23T02:08:10.030Z,99.30
2023-04-23T02:09:10.027Z,99.30
2023-04-23T02:10:10.002Z,99.30
2023-04-23T02:11:09.996Z,99.30
2023-04-23T02:12:09.989Z,99.30
2023-04-23T02:13:09.968Z,99.41
2023-04-23T02:14:09.954Z,99.41
2023-04-23T02:15:09.967Z,99.30
2023-04-23T02:16:09.965Z,99.30
2023-04-23T02:17:09.916Z,99.30
2023-04-23T02:18:09.895Z,99.30
2023-04-23T02:19:09.907Z,99.20
2023-04-23T02:20:09.912Z,99.30
2023-04-23T02:21:09.893Z,99.20
2023-04-23T02:22:09.838Z,99.20
2023-04-23T02:23:09.851Z,99.20
2023-04-23T02:24:09.803Z,99.20
2023-04-23T02:25:09.817Z,99.30
2023-04-23T02:26:09.804Z,99.10
2023-04-23T02:27:09.777Z,99.00
2023-04-23T02:28:09.747Z,99.00
2023-04-23T02:29:09.764Z,98.90
2023-04-23T02:30:09.722Z,98.90
2023-04-23T02:31:09.765Z,98.90
2023-04-23T02:32:09.701Z,99.00
2023-04-23T02:33:09.717Z,99.00
2023-04-23T02:34:09.714Z,99.10
2023-04-23T02:35:09.703Z,99.10
2023-04-23T02:36:09.642Z,99.10
2023-04-23T02:37:09.662Z,99.20
2023-04-23T02:38:09.645Z,99.20
2023-04-23T02:39:09.623Z,99.20
2023-04-23T02:40:09.587Z,99.20
2023-04-23T02:41:09.636Z,99.20
2023-04-23T02:42:09.577Z,99.30
2023-04-23T02:43:09.597Z,99.30
2023-04-23T02:44:09.554Z,99.30
2023-04-23T02:45:09.555Z,99.20
2023-04-23T02:46:09.563Z,99.20
2023-04-23T02:47:09.513Z,99.20
2023-04-23T02:48:09.524Z,99.30
2023-04-23T02:49:09.513Z,99.30
2023-04-23T02:50:09.464Z,99.30
2023-04-23T02:51:09.468Z,99.10
2023-04-23T02:52:09.443Z,99.00
2023-04-23T02:53:09.440Z,99.00
2023-04-23T02:54:09.424Z,99.00
2023-04-23T02:55:09.417Z,99.10
2023-04-23T02:56:09.417Z,99.10
2023-04-23T02:57:09.402Z,99.10
2023-04-23T02:58:09.357Z,99.20
2023-04-23T02:59:09.423Z,99.20
2023-04-23T03:00:09.316Z,99.20
2023-04-23T03:01:09.364Z,99.30
2023-04-23T03:02:09.370Z,99.20
2023-04-23T03:03:11.865Z,99.20
2023-04-23T03:04:09.412Z,99.30
2023-04-23T03:05:09.284Z,99.41
2023-04-23T03:06:09.257Z,99.41
2023-04-23T03:07:09.260Z,99.41
2023-04-23T03:08:09.213Z,99.41
2023-04-23T03:09:09.312Z,99.45
2023-04-23T03:10:09.231Z,99.51
2023-04-23T03:11:09.202Z,99.51
2023-04-23T03:12:09.187Z,99.61
2023-04-23T03:13:09.156Z,99.71
2023-04-23T03:14:09.158Z,99.71
2023-04-23T03:15:09.145Z,99.71
2023-04-23T03:16:09.129Z,99.71
2023-04-23T03:17:09.100Z,99.61
2023-04-23T03:18:09.109Z,99.61
2023-04-23T03:19:09.083Z,99.66
2023-04-23T03:20:09.121Z,99.66
2023-04-23T03:21:09.044Z,99.66
2023-04-23T03:22:09.081Z,99.66
2023-04-23T03:23:09.026Z,99.76
2023-04-23T03:24:09.062Z,99.76
2023-04-23T03:25:09.016Z,99.96
2023-04-23T03:26:08.996Z,99.99
2023-04-23T03:27:08.966Z,99.99
2023-04-23T03:28:08.986Z,99.99
2023-04-23T03:29:08.943Z,99.99
2023-04-23T03:30:08.948Z,99.99
2023-04-23T03:31:09.041Z,99.99
2023-04-23T03:32:08.937Z,99.99
2023-04-23T03:33:08.878Z,99.99
2023-04-23T03:34:08.922Z,99.99
2023-04-23T03:35:08.867Z,99.99
2023-04-23T03:36:08.883Z,99.99
2023-04-23T03:37:08.839Z,99.99
2023-04-23T03:38:08.856Z,99.99
2023-04-23T03:39:08.812Z,99.99
2023-04-23T03:40:08.822Z,99.99
2023-04-23T03:41:08.766Z,99.99
2023-04-23T03:42:08.810Z,99.99
2023-04-23T03:43:08.747Z,99.99
2023-04-23T03:44:08.767Z,99.99
2023-04-23T03:45:08.838Z,99.99
2023-04-23T03:46:08.787Z,99.99
2023-04-23T03:47:08.760Z,99.99
2023-04-23T03:48:08.717Z,99.99
2023-04-23T03:49:08.671Z,99.99
2023-04-23T03:50:08.678Z,99.99
2023-04-23T03:51:08.646Z,99.99
2023-04-23T03:52:08.683Z,99.99
2023-04-23T03:53:08.635Z,99.99
2023-04-23T03:54:08.637Z,99.99
2023-04-23T03:55:08.617Z,99.99
2023-04-23T03:56:08.623Z,99.99
2023-04-23T03:57:08.565Z,99.99
2023-04-23T03:58:08.588Z,99.99
2023-04-23T03:59:08.551Z,99.99
2023-04-23T04:00:08.557Z,99.99
2023-04-23T04:01:08.552Z,99.99
2023-04-23T04:02:08.605Z,99.99
2023-04-23T04:03:08.584Z,99.99
2023-04-23T04:04:08.770Z,99.99
2023-04-23T04:05:08.590Z,99.99
2023-04-23T04:06:08.490Z,99.99
2023-04-23T04:07:08.431Z,99.99
2023-04-23T04:08:08.465Z,99.99
2023-04-23T04:09:08.426Z,99.99
2023-04-23T04:10:08.417Z,99.99
2023-04-23T04:11:08.410Z,99.99
2023-04-23T04:12:08.420Z,99.99
2023-04-23T04:13:08.374Z,99.99
2023-04-23T04:14:08.365Z,99.99
2023-04-23T04:15:08.335Z,99.99
2023-04-23T04:16:08.398Z,99.99
2023-04-23T04:17:08.350Z,99.99
2023-04-23T04:18:08.305Z,99.99
2023-04-23T04:19:08.275Z,99.99
2023-04-23T04:20:08.286Z,99.99
2023-04-23T04:21:08.266Z,99.99
2023-04-23T04:22:08.278Z,99.99
2023-04-23T04:23:08.215Z,99.99
2023-04-23T04:24:08.273Z,99.99
2023-04-23T04:25:08.193Z,99.99
2023-04-23T04:26:08.225Z,99.99
2023-04-23T04:27:08.204Z,99.99
2023-04-23T04:28:08.187Z,99.99
2023-04-23T04:29:08.181Z,99.99
2023-04-23T04:30:08.159Z,99.99
2023-04-23T04:31:08.153Z,99.99
2023-04-23T04:32:08.122Z,99.99
2023-04-23T04:33:08.121Z,99.99
2023-04-23T04:34:08.095Z,99.99
2023-04-23T04:35:08.062Z,99.99
2023-04-23T04:36:08.088Z,99.99
2023-04-23T04:37:08.054Z,99.99
2023-04-23T04:38:08.063Z,99.99
2023-04-23T04:39:08.013Z,99.99
2023-04-23T04:40:08.077Z,99.99
2023-04-23T04:41:08.013Z,99.99
2023-04-23T04:42:08.021Z,99.99
2023-04-23T04:43:07.966Z,99.99
2023-04-23T04:44:07.965Z,99.99
2023-04-23T04:45:07.923Z,99.99
2023-04-23T04:46:07.952Z,99.99
2023-04-23T04:47:07.996Z,99.99
2023-04-23T04:48:07.940Z,99.99
2023-04-23T04:49:07.923Z,99.99
2023-04-23T04:50:07.932Z,99.99
2023-04-23T04:51:07.859Z,99.99
2023-04-23T04:52:07.864Z,99.99
2023-04-23T04:53:07.831Z,99.99
2023-04-23T04:54:07.825Z,99.99
2023-04-23T04:55:07.849Z,99.99
2023-04-23T04:56:07.818Z,99.99
2023-04-23T04:57:07.784Z,99.99
2023-04-23T04:58:07.832Z,99.99
2023-04-23T04:59:07.742Z,99.99
2023-04-23T05:00:07.744Z,99.99
2023-04-23T05:01:07.767Z,99.99
2023-04-23T05:02:07.792Z,99.99
2023-04-23T05:03:07.885Z,99.99
2023-04-23T05:04:08.204Z,99.99
2023-04-23T05:05:07.696Z,99.99
2023-04-23T05:06:07.665Z,99.99
2023-04-23T05:07:07.639Z,99.99
2023-04-23T05:08:07.661Z,99.99
2023-04-23T05:09:07.619Z,99.99
2023-04-23T05:10:07.655Z,99.99
2023-04-23T05:11:07.590Z,99.99
2023-04-23T05:12:07.594Z,99.99
2023-04-23T05:13:07.558Z,99.99
2023-04-23T05:14:07.579Z,99.99
2023-04-23T05:15:07.542Z,99.99
2023-04-23T05:16:07.614Z,99.99
2023-04-23T05:17:07.504Z,99.99
2023-04-23T05:18:07.500Z,99.99
2023-04-23T05:19:07.473Z,99.99
2023-04-23T05:20:07.502Z,99.99
2023-04-23T05:21:07.456Z,99.99
2023-04-23T05:22:07.474Z,99.99
2023-04-23T05:23:07.422Z,99.99
2023-04-23T05:24:07.465Z,99.99
2023-04-23T05:25:07.436Z,99.99
2023-04-23T05:26:07.420Z,99.99
2023-04-23T05:27:07.367Z,99.99
2023-04-23T05:28:07.388Z,99.99
2023-04-23T05:29:07.371Z,99.99
2023-04-23T05:30:07.355Z,99.99
2023-04-23T05:31:07.330Z,99.99
2023-04-23T05:32:07.418Z,99.99
2023-04-23T05:33:07.355Z,99.99
2023-04-23T05:34:07.311Z,99.99
2023-04-23T05:35:07.277Z,99.99
2023-04-23T05:36:07.314Z,99.99
2023-04-23T05:37:07.251Z,99.99
2023-04-23T05:38:07.262Z,99.99
2023-04-23T05:39:07.216Z,99.99
2023-04-23T05:40:07.239Z,99.99
2023-04-23T05:41:07.179Z,99.99
2023-04-23T05:42:07.221Z,99.99
2023-04-23T05:43:07.159Z,99.99
2023-04-23T05:44:07.175Z,99.99
2023-04-23T05:45:08.827Z,99.99
2023-04-23T05:46:07.315Z,99.99
2023-04-23T05:47:07.121Z,99.99
2023-04-23T05:48:07.135Z,99.99
2023-04-23T05:49:07.068Z,99.99
2023-04-23T05:50:07.126Z,99.99
2023-04-23T05:51:07.045Z,99.99
2023-04-23T05:52:07.107Z,99.99
2023-04-23T05:53:07.017Z,99.99
2023-04-23T05:54:07.056Z,99.99
2023-04-23T05:55:07.029Z,99.99
2023-04-23T05:56:07.041Z,99.99
2023-04-23T05:57:06.969Z,99.99
2023-04-23T05:58:06.984Z,99.99
2023-04-23T05:59:06.927Z,99.99
2023-04-23T06:00:06.964Z,99.99
2023-04-23T06:01:06.917Z,99.99
2023-04-23T06:02:07.075Z,99.99
2023-04-23T06:03:06.990Z,99.99
2023-04-23T06:04:07.092Z,99.99
2023-04-23T06:05:07.056Z,99.99
2023-04-23T06:06:06.864Z,99.99
2023-04-23T06:07:06.836Z,99.99
2023-04-23T06:08:06.835Z,99.99
2023-04-23T06:09:06.822Z,99.99
2023-04-23T06:10:06.833Z,99.99
2023-04-23T06:11:06.804Z,99.99
2023-04-23T06:12:06.785Z,99.99
2023-04-23T06:13:06.750Z,99.99
2023-04-23T06:14:06.781Z,99.99
2023-04-23T06:15:06.739Z,99.99
2023-04-23T06:16:06.769Z,99.99
2023-04-23T06:17:06.709Z,99.99
2023-04-23T06:18:06.855Z,99.87
2023-04-23T06:19:06.709Z,99.66
2023-04-23T06:20:06.680Z,99.46
2023-04-23T06:21:06.729Z,99.46
2023-04-23T06:22:06.694Z,99.36
2023-04-23T06:23:06.663Z,99.31
2023-04-23T06:24:06.627Z,99.31
2023-04-23T06:25:06.595Z,99.11
2023-04-23T06:26:06.607Z,98.95
2023-04-23T06:27:06.552Z,98.91
2023-04-23T06:28:06.595Z,98.80
2023-04-23T06:29:06.534Z,98.91
2023-04-23T06:30:06.573Z,99.11
2023-04-23T06:31:06.551Z,99.31
2023-04-23T06:32:06.526Z,99.31
2023-04-23T06:33:06.523Z,99.21
2023-04-23T06:34:06.500Z,98.91
2023-04-23T06:35:06.895Z,98.55
2023-04-23T06:36:06.490Z,98.25
2023-04-23T06:37:06.458Z,98.25
2023-04-23T06:38:06.426Z,98.05
2023-04-23T06:39:06.400Z,98.05
2023-04-23T06:40:06.416Z,98.05
2023-04-23T06:41:06.366Z,97.33
2023-04-23T06:42:06.394Z,96.72
2023-04-23T06:43:06.353Z,96.62
2023-04-23T06:44:06.353Z,96.01
2023-04-23T06:45:06.563Z,95.70
2023-04-23T06:46:06.354Z,95.30
2023-04-23T06:47:06.355Z,94.79
2023-04-23T06:48:06.364Z,95.40
2023-04-23T06:49:06.263Z,94.48
2023-04-23T06:50:06.270Z,93.67
2023-04-23T06:51:06.263Z,94.18
2023-04-23T06:52:06.259Z,94.28
2023-04-23T06:53:06.247Z,94.34
2023-04-23T06:54:06.238Z,94.34
2023-04-23T06:55:06.215Z,94.04
2023-04-23T06:56:06.221Z,93.63
2023-04-23T06:57:06.199Z,93.63
2023-04-23T06:58:06.203Z,93.73
2023-04-23T06:59:06.138Z,93.83
2023-04-23T07:00:06.139Z,94.09
2023-04-23T07:01:06.155Z,94.29
2023-04-23T07:02:06.152Z,94.40
2023-04-23T07:03:06.173Z,94.29
2023-04-23T07:04:06.137Z,93.99
2023-04-23T07:05:06.053Z,93.79
2023-04-23T07:06:06.118Z,93.79
2023-04-23T07:07:06.035Z,93.79
2023-04-23T07:08:06.050Z,93.28
2023-04-23T07:09:06.027Z,92.87
2023-04-23T07:10:06.070Z,92.67
2023-04-23T07:11:05.998Z,93.28
2023-04-23T07:12:06.007Z,92.97
2023-04-23T07:13:05.973Z,92.67
2023-04-23T07:14:05.985Z,92.77
2023-04-23T07:15:06.006Z,92.63
2023-04-23T07:16:05.981Z,92.12
2023-04-23T07:17:06.007Z,91.82
2023-04-23T07:18:05.944Z,91.61
2023-04-23T07:19:05.925Z,91.91
2023-04-23T07:20:05.911Z,91.55
2023-04-23T07:21:05.874Z,92.02
2023-04-23T07:22:05.887Z,92.12
2023-04-23T07:23:05.833Z,92.32
2023-04-23T07:24:05.856Z,92.72
2023-04-23T07:25:06.132Z,92.93
2023-04-23T07:26:05.822Z,93.19
2023-04-23T07:27:05.829Z,93.09
2023-04-23T07:28:05.819Z,92.24
2023-04-23T07:29:05.796Z,91.83
2023-04-23T07:30:05.751Z,91.83
2023-04-23T07:31:05.755Z,91.22
2023-04-23T07:32:05.737Z,90.36
2023-04-23T07:33:05.800Z,89.15
2023-04-23T07:34:05.711Z,89.25
2023-04-23T07:35:05.729Z,88.60
2023-04-23T07:36:05.682Z,87.79
2023-04-23T07:37:05.685Z,87.08
2023-04-23T07:38:05.635Z,86.53
2023-04-23T07:39:05.694Z,86.02
2023-04-23T07:40:05.670Z,85.01
2023-04-23T07:41:05.632Z,86.63
2023-04-23T07:42:05.593Z,85.15
2023-04-23T07:43:05.619Z,85.05
2023-04-23T07:44:05.581Z,85.76
2023-04-23T07:45:05.590Z,86.37
2023-04-23T07:46:05.611Z,86.21
2023-04-23T07:47:05.552Z,86.91
2023-04-23T07:48:05.516Z,86.91
2023-04-23T07:49:05.529Z,86.82
2023-04-23T07:50:05.533Z,87.02
2023-04-23T07:51:05.500Z,86.82
2023-04-23T07:52:05.469Z,86.91
2023-04-23T07:53:05.491Z,87.22
2023-04-23T07:54:05.458Z,86.82
2023-04-23T07:55:05.443Z,87.12
2023-04-23T07:56:05.431Z,87.18
2023-04-23T07:57:05.437Z,87.99
2023-04-23T07:58:05.384Z,87.18
2023-04-23T07:59:05.387Z,86.98
2023-04-23T08:00:05.362Z,87.34
2023-04-23T08:01:05.393Z,87.14
2023-04-23T08:02:05.421Z,86.13
2023-04-23T08:03:05.435Z,85.52
2023-04-23T08:04:05.453Z,86.22
2023-04-23T08:05:05.392Z,86.79
2023-04-23T08:06:05.333Z,84.06
2023-04-23T08:07:05.281Z,83.35
2023-04-23T08:08:05.257Z,83.61
2023-04-23T08:09:05.272Z,82.06
2023-04-23T08:10:05.222Z,82.26
2023-04-23T08:11:05.251Z,82.32
2023-04-23T08:12:05.230Z,80.10
2023-04-23T08:13:05.184Z,81.21
2023-04-23T08:14:05.180Z,82.22
2023-04-23T08:15:05.214Z,82.99
2023-04-23T08:16:05.203Z,80.22
2023-04-23T08:17:05.144Z,79.41
2023-04-23T08:18:05.166Z,76.79
2023-04-23T08:19:06.229Z,77.19
2023-04-23T08:20:05.117Z,77.90
2023-04-23T08:21:05.083Z,78.00
2023-04-23T08:22:05.078Z,80.02
2023-04-23T08:23:05.126Z,80.19
2023-04-23T08:24:05.078Z,78.23
2023-04-23T08:25:05.044Z,76.78
2023-04-23T08:26:05.026Z,76.68
2023-04-23T08:27:05.005Z,75.74
2023-04-23T08:28:05.109Z,76.44
2023-04-23T08:29:05.029Z,76.14
2023-04-23T08:30:05.084Z,74.56
2023-04-23T08:31:15.113Z,75.04
2023-04-23T08:32:05.004Z,75.37
2023-04-23T08:33:05.027Z,76.28
2023-04-23T08:34:04.952Z,77.33
2023-04-23T08:35:04.889Z,77.77
2023-04-23T08:36:04.919Z,78.62
2023-04-23T08:37:04.910Z,78.52
2023-04-23T08:38:04.914Z,80.13
2023-04-23T08:39:04.880Z,78.92
2023-04-23T08:40:04.891Z,79.53
2023-04-23T08:41:04.826Z,80.84
2023-04-23T08:42:04.859Z,81.05
2023-04-23T08:43:04.808Z,81.01
2023-04-23T08:44:04.830Z,79.29
2023-04-23T08:45:04.914Z,79.49
2023-04-23T08:46:04.767Z,76.15
2023-04-23T08:47:04.770Z,74.94
2023-04-23T08:48:04.784Z,74.80
2023-04-23T08:49:04.689Z,75.71
2023-04-23T08:50:04.757Z,75.51
2023-04-23T08:51:04.666Z,75.41
2023-04-23T08:52:04.699Z,75.92
2023-04-23T08:53:04.673Z,75.81
2023-04-23T08:54:04.692Z,74.03
2023-04-23T08:55:04.657Z,74.60
2023-04-23T08:56:04.671Z,75.81
2023-04-23T08:57:04.613Z,74.87
2023-04-23T08:58:04.618Z,74.66
2023-04-23T08:59:04.572Z,74.97
2023-04-23T09:00:04.593Z,74.63
2023-04-23T09:01:04.642Z,74.02
2023-04-23T09:02:04.648Z,74.33
2023-04-23T09:03:04.815Z,72.81
2023-04-23T09:04:04.571Z,73.22
2023-04-23T09:05:04.565Z,71.13
2023-04-23T09:06:04.522Z,72.24
2023-04-23T09:07:04.478Z,72.75
2023-04-23T09:08:04.476Z,71.73
2023-04-23T09:09:04.457Z,70.73
2023-04-23T09:10:04.461Z,71.10
2023-04-23T09:11:04.422Z,71.60
2023-04-23T09:12:04.462Z,71.77
2023-04-23T09:13:04.394Z,71.17
2023-04-23T09:14:04.397Z,72.98
2023-04-23T09:15:04.449Z,72.17
2023-04-23T09:16:04.402Z,72.75
2023-04-23T09:17:04.359Z,70.32
2023-04-23T09:18:04.356Z,71.50
2023-04-23T09:19:04.298Z,70.69
2023-04-23T09:20:04.320Z,69.85
2023-04-23T09:21:04.331Z,69.85
2023-04-23T09:22:04.304Z,69.92
2023-04-23T09:23:04.392Z,70.62
2023-04-23T09:24:04.277Z,70.39
2023-04-23T09:25:04.296Z,67.14
2023-04-23T09:26:04.277Z,66.43
2023-04-23T09:27:04.196Z,66.87
2023-04-23T09:28:04.238Z,67.27
2023-04-23T09:29:04.206Z,67.64
2023-04-23T09:30:04.205Z,66.13
2023-04-23T09:31:04.151Z,66.74
2023-04-23T09:32:04.191Z,67.14
2023-04-23T09:33:04.132Z,67.94
2023-04-23T09:34:04.141Z,67.24
2023-04-23T09:35:04.120Z,66.87
2023-04-23T09:36:04.105Z,67.57
2023-04-23T09:37:04.079Z,68.28
2023-04-23T09:38:04.084Z,67.54
2023-04-23T09:39:04.049Z,67.27
2023-04-23T09:40:04.090Z,68.08
2023-04-23T09:41:04.039Z,68.98
2023-04-23T09:42:04.059Z,69.79
2023-04-23T09:43:03.998Z,69.29
2023-04-23T09:44:04.025Z,70.19
2023-04-23T09:45:04.015Z,68.58
2023-04-23T09:46:04.167Z,68.68
2023-04-23T09:47:03.964Z,68.51
2023-04-23T09:48:04.009Z,69.01
2023-04-23T09:49:03.930Z,69.52
2023-04-23T09:50:03.934Z,69.85
2023-04-23T09:51:03.890Z,70.26
2023-04-23T09:52:03.932Z,66.63
2023-04-23T09:53:03.898Z,66.63
2023-04-23T09:54:03.884Z,67.84
2023-04-23T09:55:03.935Z,67.43
2023-04-23T09:56:03.863Z,69.05
2023-04-23T09:57:03.815Z,69.15
2023-04-23T09:58:03.868Z,68.74
2023-04-23T09:59:03.786Z,69.15
2023-04-23T10:00:13.910Z,68.07
2023-04-23T10:01:03.799Z,69.35
2023-04-23T10:02:03.778Z,68.44
2023-04-23T10:03:03.932Z,68.41
2023-04-23T10:04:03.864Z,66.80
2023-04-23T10:05:21.495Z,65.59
2023-04-23T10:06:04.029Z,67.00
2023-04-23T10:07:18.052Z,66.09
2023-04-23T10:08:03.757Z,67.40
2023-04-23T10:09:03.652Z,68.91
2023-04-23T10:10:03.657Z,67.10
2023-04-23T10:11:19.582Z,66.50
2023-04-23T10:12:03.652Z,66.13
2023-04-23T10:13:03.580Z,66.53
2023-04-23T10:14:03.644Z,66.86
2023-04-23T10:15:03.663Z,68.48
2023-04-23T10:16:17.991Z,68.37
2023-04-23T10:17:03.575Z,69.28
2023-04-23T10:18:03.581Z,69.28
2023-04-23T10:19:03.550Z,69.18
2023-04-23T10:20:03.558Z,69.18
2023-04-23T10:21:03.501Z,68.57
2023-04-23T10:22:18.159Z,68.07
2023-04-23T10:23:03.547Z,70.19
2023-04-23T10:24:03.513Z,69.75
2023-04-23T10:25:03.452Z,67.54
2023-04-23T10:26:03.486Z,68.01
2023-04-23T10:27:03.410Z,68.81
2023-04-23T10:28:03.472Z,69.09
2023-04-23T10:29:03.403Z,68.68
2023-04-23T10:30:05.497Z,67.84
2023-04-23T10:31:03.392Z,67.77
2023-04-23T10:32:03.390Z,67.57
2023-04-23T10:33:03.388Z,67.88
2023-04-23T10:34:03.460Z,67.77
2023-04-23T10:35:03.385Z,69.62
2023-04-23T10:36:03.325Z,68.21
2023-04-23T10:37:03.283Z,68.91
2023-04-23T10:38:03.349Z,68.01
2023-04-23T10:39:03.276Z,68.48
2023-04-23T10:40:03.276Z,67.68
2023-04-23T10:41:03.234Z,66.97
2023-04-23T10:42:03.249Z,66.56
2023-04-23T10:43:03.197Z,66.67
2023-04-23T10:44:03.255Z,66.97
2023-04-23T10:45:13.115Z,65.86
2023-04-23T10:46:03.228Z,64.35
2023-04-23T10:47:03.193Z,65.89
2023-04-23T10:48:03.210Z,67.10
2023-04-23T10:49:03.126Z,64.86
2023-04-23T10:50:03.833Z,65.26
2023-04-23T10:51:25.032Z,67.37
2023-04-23T10:53:03.107Z,65.33
2023-04-23T10:54:03.083Z,64.32
2023-04-23T10:55:03.204Z,63.92
2023-04-23T10:56:03.075Z,63.11
2023-04-23T10:57:03.067Z,65.02
2023-04-23T10:58:03.384Z,63.11
2023-04-23T10:59:02.994Z,64.92
2023-04-23T11:00:03.030Z,64.22
2023-04-23T11:01:03.001Z,65.12
2023-04-23T11:02:03.010Z,63.01
2023-04-23T11:03:03.036Z,65.22
2023-04-23T11:04:03.094Z,62.71
2023-04-23T11:05:02.972Z,62.30
2023-04-23T11:06:02.942Z,64.02
2023-04-23T11:07:02.892Z,62.41
2023-04-23T11:08:11.101Z,61.50
2023-04-23T11:09:02.884Z,61.30
2023-04-23T11:10:02.883Z,62.10
2023-04-23T11:11:02.836Z,63.51
2023-04-23T11:12:02.877Z,62.18
2023-04-23T11:13:02.814Z,61.47
2023-04-23T11:14:02.839Z,62.48
2023-04-23T11:15:02.794Z,61.77
2023-04-23T11:16:02.796Z,62.98
2023-04-23T11:17:02.754Z,63.56
2023-04-23T11:18:02.847Z,62.35
2023-04-23T11:19:02.758Z,60.53
2023-04-23T11:20:02.747Z,60.94
2023-04-23T11:21:02.701Z,59.83
2023-04-23T11:22:02.849Z,60.71
2023-04-23T11:23:02.797Z,61.61
2023-04-23T11:24:02.682Z,61.61
2023-04-23T11:25:02.688Z,61.91
2023-04-23T11:26:02.691Z,61.71
2023-04-23T11:27:02.644Z,61.58
2023-04-23T11:28:02.665Z,62.39
2023-04-23T11:29:02.593Z,60.08
2023-04-23T11:30:02.626Z,60.98
2023-04-23T11:31:02.583Z,61.11
2023-04-23T11:32:03.890Z,61.71
2023-04-23T11:33:02.789Z,60.61
2023-04-23T11:34:02.588Z,59.60
2023-04-23T11:35:02.530Z,60.00
2023-04-23T11:36:02.576Z,61.11
2023-04-23T11:37:02.517Z,59.91
2023-04-23T11:38:02.525Z,60.21
2023-04-23T11:39:02.476Z,60.31
2023-04-23T11:40:02.518Z,60.31
2023-04-23T11:41:02.476Z,60.61
2023-04-23T11:42:02.440Z,60.41
2023-04-23T11:43:02.452Z,59.60
2023-04-23T11:44:02.410Z,60.91
2023-04-23T11:45:02.426Z,61.01
2023-04-23T11:46:02.455Z,59.30
2023-04-23T11:47:02.452Z,59.47
2023-04-23T11:48:02.432Z,60.68
2023-04-23T11:49:02.386Z,59.70
2023-04-23T11:50:02.335Z,60.31
2023-04-23T11:51:02.399Z,62.12
2023-04-23T11:52:02.317Z,61.41
2023-04-23T11:53:02.344Z,61.79
2023-04-23T11:54:02.301Z,61.69
2023-04-23T11:55:02.290Z,61.18
2023-04-23T11:56:02.265Z,59.98
2023-04-23T11:57:02.285Z,60.65
2023-04-23T11:58:02.224Z,59.34
2023-04-23T11:59:02.242Z,60.05
2023-04-23T12:00:02.230Z,60.15
2023-04-23T12:01:02.200Z,59.65
2023-04-23T12:02:02.196Z,60.85
2023-04-23T12:03:02.472Z,59.05
2023-04-23T12:04:02.474Z,59.14
2023-04-23T12:05:02.212Z,59.25
2023-04-23T12:06:02.112Z,58.75
2023-04-23T12:07:07.957Z,57.24
2023-04-23T12:08:02.108Z,58.54
2023-04-23T12:09:02.133Z,58.94
2023-04-23T12:10:02.067Z,59.85
2023-04-23T12:11:02.085Z,60.55
2023-04-23T12:12:02.041Z,61.46
2023-04-23T12:13:02.115Z,60.45
2023-04-23T12:14:02.024Z,60.15
2023-04-23T12:15:02.027Z,59.95
2023-04-23T12:16:02.042Z,60.25
2023-04-23T12:17:01.995Z,58.54
2023-04-23T12:18:02.025Z,57.84
2023-04-23T12:19:01.970Z,58.75
2023-04-23T12:20:01.949Z,57.54
2023-04-23T12:21:01.955Z,58.34
2023-04-23T12:22:01.925Z,57.77
2023-04-23T12:23:01.933Z,58.04
2023-04-23T12:24:01.881Z,58.94
2023-04-23T12:25:01.893Z,57.54
2023-04-23T12:26:01.881Z,58.81
2023-04-23T12:27:01.946Z,58.51
2023-04-23T12:28:01.836Z,57.71
2023-04-23T12:29:01.898Z,57.91
2023-04-23T12:30:02.980Z,58.11
2023-04-23T12:31:01.857Z,55.80
2023-04-23T12:32:01.777Z,56.30
2023-04-23T12:33:01.876Z,57.91
2023-04-23T12:34:01.741Z,56.68
2023-04-23T12:35:01.772Z,56.98
2023-04-23T12:36:01.723Z,57.59
2023-04-23T12:37:01.736Z,56.58
2023-04-23T12:38:01.821Z,55.65
2023-04-23T12:39:01.727Z,56.05
2023-04-23T12:40:01.679Z,54.75
2023-04-23T12:41:01.713Z,54.25
2023-04-23T12:42:01.664Z,55.65
2023-04-23T12:43:01.649Z,54.75
2023-04-23T12:44:01.609Z,54.95
2023-04-23T12:45:01.628Z,56.05
2023-04-23T12:46:01.593Z,57.06
2023-04-23T12:47:01.667Z,57.23
2023-04-23T12:48:01.598Z,54.62
2023-04-23T12:49:01.588Z,54.52
2023-04-23T12:50:01.551Z,53.82
2023-04-23T12:51:01.590Z,52.82
2023-04-23T12:52:01.551Z,52.12
2023-04-23T12:53:01.521Z,53.62